sensor_id;sensor_type;location;lat;lon;timestamp;P1;durP1;ratioP1;P2;durP2;ratioP2
49296;SDS011;35163;48.878;18.040;2023-06-22T00:01:20;14.05;;;5.40;;
49296;SDS011;35163;48.878;18.040;2023-06-22T00:03:49;12.02;;;5.13;;
49296;SDS011;35163;48.878;18.040;2023-06-22T00:06:16;15.90;;;6.70;;
49296;SDS011;35163;48.878;18.040;2023-06-22T00:08:43;15.05;;;5.90;;
49296;SDS011;35163;48.878;18.040;2023-06-22T00:11:10;15.60;;;4.97;;
49296;SDS011;35163;48.878;18.040;2023-06-22T00:13:37;14.30;;;5.13;;
49296;SDS011;35163;48.878;18.040;2023-06-22T00:16:05;13.35;;;5.18;;
49296;SDS011;35163;48.878;18.040;2023-06-22T00:18:31;13.00;;;5.57;;
49296;SDS011;35163;48.878;18.040;2023-06-22T00:20:58;17.58;;;5.70;;
49296;SDS011;35163;48.878;18.040;2023-06-22T00:23:25;11.38;;;4.50;;
49296;SDS011;35163;48.878;18.040;2023-06-22T00:25:52;14.23;;;5.53;;
49296;SDS011;35163;48.878;18.040;2023-06-22T00:28:19;12.27;;;4.38;;
49296;SDS011;35163;48.878;18.040;2023-06-22T00:30:46;19.10;;;5.65;;
49296;SDS011;35163;48.878;18.040;2023-06-22T00:33:15;15.65;;;4.78;;
49296;SDS011;35163;48.878;18.040;2023-06-22T00:35:42;12.18;;;4.70;;
49296;SDS011;35163;48.878;18.040;2023-06-22T00:38:09;11.45;;;4.20;;
49296;SDS011;35163;48.878;18.040;2023-06-22T00:40:36;11.85;;;5.25;;
49296;SDS011;35163;48.878;18.040;2023-06-22T00:43:03;13.18;;;5.35;;
49296;SDS011;35163;48.878;18.040;2023-06-22T00:45:31;15.43;;;5.55;;
49296;SDS011;35163;48.878;18.040;2023-06-22T00:47:58;18.85;;;6.40;;
49296;SDS011;35163;48.878;18.040;2023-06-22T00:50:27;13.05;;;5.40;;
49296;SDS011;35163;48.878;18.040;2023-06-22T00:53:01;11.05;;;6.07;;
49296;SDS011;35163;48.878;18.040;2023-06-22T00:55:35;18.85;;;6.80;;
49296;SDS011;35163;48.878;18.040;2023-06-22T00:58:04;15.77;;;5.82;;
49296;SDS011;35163;48.878;18.040;2023-06-22T01:00:34;17.27;;;5.50;;
49296;SDS011;35163;48.878;18.040;2023-06-22T01:03:01;15.63;;;5.43;;
49296;SDS011;35163;48.878;18.040;2023-06-22T01:05:29;18.85;;;5.95;;
49296;SDS011;35163;48.878;18.040;2023-06-22T01:10:54;13.07;;;5.38;;
49296;SDS011;35163;48.878;18.040;2023-06-22T01:19:01;17.38;;;6.18;;
49296;SDS011;35163;48.878;18.040;2023-06-22T01:21:42;15.68;;;7.18;;
49296;SDS011;35163;48.878;18.040;2023-06-22T01:24:15;15.98;;;6.45;;
49296;SDS011;35163;48.878;18.040;2023-06-22T01:29:15;16.77;;;6.38;;
49296;SDS011;35163;48.878;18.040;2023-06-22T01:31:43;11.77;;;5.78;;
49296;SDS011;35163;48.878;18.040;2023-06-22T01:34:12;12.88;;;6.03;;
49296;SDS011;35163;48.878;18.040;2023-06-22T01:36:39;18.42;;;5.85;;
49296;SDS011;35163;48.878;18.040;2023-06-22T01:39:06;15.05;;;7.13;;
49296;SDS011;35163;48.878;18.040;2023-06-22T01:41:35;16.23;;;6.55;;
49296;SDS011;35163;48.878;18.040;2023-06-22T01:44:07;16.75;;;6.47;;
49296;SDS011;35163;48.878;18.040;2023-06-22T01:46:35;12.18;;;6.18;;
49296;SDS011;35163;48.878;18.040;2023-06-22T01:49:03;13.75;;;5.95;;
49296;SDS011;35163;48.878;18.040;2023-06-22T01:51:31;16.90;;;6.10;;
49296;SDS011;35163;48.878;18.040;2023-06-22T01:53:58;16.73;;;6.80;;
49296;SDS011;35163;48.878;18.040;2023-06-22T01:56:25;18.90;;;7.53;;
49296;SDS011;35163;48.878;18.040;2023-06-22T01:58:57;23.38;;;8.98;;
49296;SDS011;35163;48.878;18.040;2023-06-22T02:01:36;22.75;;;9.82;;
49296;SDS011;35163;48.878;18.040;2023-06-22T02:04:13;17.13;;;8.25;;
49296;SDS011;35163;48.878;18.040;2023-06-22T02:06:47;19.50;;;8.98;;
49296;SDS011;35163;48.878;18.040;2023-06-22T02:09:18;17.60;;;8.68;;
49296;SDS011;35163;48.878;18.040;2023-06-22T02:11:48;18.98;;;9.23;;
49296;SDS011;35163;48.878;18.040;2023-06-22T02:14:21;20.02;;;9.07;;
49296;SDS011;35163;48.878;18.040;2023-06-22T02:16:50;21.55;;;9.75;;
49296;SDS011;35163;48.878;18.040;2023-06-22T02:19:22;19.10;;;9.57;;
49296;SDS011;35163;48.878;18.040;2023-06-22T02:21:49;16.73;;;9.52;;
49296;SDS011;35163;48.878;18.040;2023-06-22T02:24:16;19.98;;;10.48;;
49296;SDS011;35163;48.878;18.040;2023-06-22T02:26:43;21.40;;;10.40;;
49296;SDS011;35163;48.878;18.040;2023-06-22T02:29:11;20.33;;;9.98;;
49296;SDS011;35163;48.878;18.040;2023-06-22T02:31:38;22.52;;;10.98;;
49296;SDS011;35163;48.878;18.040;2023-06-22T02:34:06;21.35;;;11.07;;
49296;SDS011;35163;48.878;18.040;2023-06-22T02:36:32;23.00;;;11.90;;
49296;SDS011;35163;48.878;18.040;2023-06-22T02:39:00;18.70;;;11.05;;
49296;SDS011;35163;48.878;18.040;2023-06-22T02:41:28;19.77;;;11.35;;
49296;SDS011;35163;48.878;18.040;2023-06-22T02:43:54;24.75;;;12.50;;
49296;SDS011;35163;48.878;18.040;2023-06-22T02:46:24;21.55;;;11.20;;
49296;SDS011;35163;48.878;18.040;2023-06-22T02:48:52;22.35;;;12.27;;
49296;SDS011;35163;48.878;18.040;2023-06-22T02:51:19;27.70;;;12.05;;
49296;SDS011;35163;48.878;18.040;2023-06-22T02:53:45;18.60;;;11.15;;
49296;SDS011;35163;48.878;18.040;2023-06-22T02:56:13;28.90;;;12.18;;
49296;SDS011;35163;48.878;18.040;2023-06-22T02:58:43;21.02;;;11.30;;
49296;SDS011;35163;48.878;18.040;2023-06-22T03:01:10;20.27;;;11.90;;
49296;SDS011;35163;48.878;18.040;2023-06-22T03:03:39;17.02;;;10.35;;
49296;SDS011;35163;48.878;18.040;2023-06-22T03:06:06;20.73;;;10.80;;
49296;SDS011;35163;48.878;18.040;2023-06-22T03:08:33;17.33;;;10.88;;
49296;SDS011;35163;48.878;18.040;2023-06-22T03:10:59;20.98;;;10.68;;
49296;SDS011;35163;48.878;18.040;2023-06-22T03:13:26;19.25;;;10.70;;
49296;SDS011;35163;48.878;18.040;2023-06-22T03:15:53;18.08;;;11.88;;
49296;SDS011;35163;48.878;18.040;2023-06-22T03:18:20;18.90;;;11.13;;
49296;SDS011;35163;48.878;18.040;2023-06-22T03:20:48;19.65;;;11.23;;
49296;SDS011;35163;48.878;18.040;2023-06-22T03:23:15;17.85;;;12.13;;
49296;SDS011;35163;48.878;18.040;2023-06-22T03:25:42;20.20;;;11.65;;
49296;SDS011;35163;48.878;18.040;2023-06-22T03:28:11;20.45;;;12.13;;
49296;SDS011;35163;48.878;18.040;2023-06-22T03:30:37;23.55;;;12.93;;
49296;SDS011;35163;48.878;18.040;2023-06-22T03:33:04;23.75;;;13.68;;
49296;SDS011;35163;48.878;18.040;2023-06-22T03:35:31;24.45;;;14.48;;
49296;SDS011;35163;48.878;18.040;2023-06-22T03:37:57;26.65;;;15.57;;
49296;SDS011;35163;48.878;18.040;2023-06-22T03:40:24;24.40;;;15.52;;
49296;SDS011;35163;48.878;18.040;2023-06-22T03:42:51;28.30;;;15.18;;
49296;SDS011;35163;48.878;18.040;2023-06-22T03:45:18;26.90;;;14.70;;
49296;SDS011;35163;48.878;18.040;2023-06-22T03:47:44;28.90;;;15.45;;
49296;SDS011;35163;48.878;18.040;2023-06-22T03:50:11;24.83;;;14.20;;
49296;SDS011;35163;48.878;18.040;2023-06-22T03:52:38;22.75;;;13.35;;
49296;SDS011;35163;48.878;18.040;2023-06-22T03:55:05;24.52;;;16.67;;
49296;SDS011;35163;48.878;18.040;2023-06-22T03:57:32;24.27;;;15.07;;
49296;SDS011;35163;48.878;18.040;2023-06-22T03:59:59;27.17;;;17.23;;
49296;SDS011;35163;48.878;18.040;2023-06-22T04:02:28;25.63;;;15.50;;
49296;SDS011;35163;48.878;18.040;2023-06-22T04:04:55;29.38;;;16.63;;
49296;SDS011;35163;48.878;18.040;2023-06-22T04:07:22;30.48;;;17.50;;
49296;SDS011;35163;48.878;18.040;2023-06-22T04:09:48;25.77;;;14.75;;
49296;SDS011;35163;48.878;18.040;2023-06-22T04:12:15;26.63;;;15.57;;
49296;SDS011;35163;48.878;18.040;2023-06-22T04:14:41;26.98;;;15.02;;
49296;SDS011;35163;48.878;18.040;2023-06-22T04:17:08;27.48;;;15.60;;
49296;SDS011;35163;48.878;18.040;2023-06-22T04:19:35;25.08;;;12.32;;
49296;SDS011;35163;48.878;18.040;2023-06-22T04:22:02;24.55;;;12.45;;
49296;SDS011;35163;48.878;18.040;2023-06-22T04:24:28;22.30;;;10.90;;
49296;SDS011;35163;48.878;18.040;2023-06-22T04:26:55;22.15;;;12.20;;
49296;SDS011;35163;48.878;18.040;2023-06-22T04:29:22;24.40;;;11.13;;
49296;SDS011;35163;48.878;18.040;2023-06-22T04:31:58;21.73;;;12.40;;
49296;SDS011;35163;48.878;18.040;2023-06-22T04:34:29;19.80;;;10.88;;
49296;SDS011;35163;48.878;18.040;2023-06-22T04:36:56;21.33;;;10.57;;
49296;SDS011;35163;48.878;18.040;2023-06-22T04:39:25;22.65;;;10.48;;
49296;SDS011;35163;48.878;18.040;2023-06-22T04:41:53;16.00;;;10.02;;
49296;SDS011;35163;48.878;18.040;2023-06-22T04:44:21;18.85;;;10.70;;
49296;SDS011;35163;48.878;18.040;2023-06-22T04:46:55;25.20;;;11.65;;
49296;SDS011;35163;48.878;18.040;2023-06-22T04:49:30;19.13;;;11.35;;
49296;SDS011;35163;48.878;18.040;2023-06-22T04:52:04;21.33;;;10.73;;
49296;SDS011;35163;48.878;18.040;2023-06-22T04:54:36;19.95;;;10.32;;
49296;SDS011;35163;48.878;18.040;2023-06-22T04:57:05;17.95;;;9.63;;
49296;SDS011;35163;48.878;18.040;2023-06-22T04:59:37;21.10;;;11.60;;
49296;SDS011;35163;48.878;18.040;2023-06-22T05:02:05;21.60;;;11.50;;
49296;SDS011;35163;48.878;18.040;2023-06-22T05:04:32;21.75;;;11.13;;
49296;SDS011;35163;48.878;18.040;2023-06-22T05:06:59;28.15;;;13.02;;
49296;SDS011;35163;48.878;18.040;2023-06-22T05:09:26;21.45;;;10.45;;
49296;SDS011;35163;48.878;18.040;2023-06-22T05:11:53;21.05;;;10.40;;
49296;SDS011;35163;48.878;18.040;2023-06-22T05:14:20;24.50;;;11.23;;
49296;SDS011;35163;48.878;18.040;2023-06-22T05:16:47;22.08;;;10.65;;
49296;SDS011;35163;48.878;18.040;2023-06-22T05:19:14;18.65;;;10.10;;
49296;SDS011;35163;48.878;18.040;2023-06-22T05:21:41;17.30;;;9.50;;
49296;SDS011;35163;48.878;18.040;2023-06-22T05:24:08;19.58;;;9.20;;
49296;SDS011;35163;48.878;18.040;2023-06-22T05:26:35;18.30;;;9.48;;
49296;SDS011;35163;48.878;18.040;2023-06-22T05:29:02;19.00;;;10.32;;
49296;SDS011;35163;48.878;18.040;2023-06-22T05:31:29;16.30;;;8.88;;
49296;SDS011;35163;48.878;18.040;2023-06-22T05:33:56;19.23;;;11.10;;
49296;SDS011;35163;48.878;18.040;2023-06-22T05:36:23;17.02;;;8.85;;
49296;SDS011;35163;48.878;18.040;2023-06-22T05:38:56;17.70;;;9.07;;
49296;SDS011;35163;48.878;18.040;2023-06-22T05:41:23;19.58;;;10.07;;
49296;SDS011;35163;48.878;18.040;2023-06-22T05:43:49;15.95;;;9.35;;
49296;SDS011;35163;48.878;18.040;2023-06-22T05:46:16;23.05;;;9.75;;
49296;SDS011;35163;48.878;18.040;2023-06-22T05:48:43;21.17;;;9.80;;
49296;SDS011;35163;48.878;18.040;2023-06-22T05:51:10;16.67;;;10.70;;
49296;SDS011;35163;48.878;18.040;2023-06-22T05:53:36;21.80;;;9.95;;
49296;SDS011;35163;48.878;18.040;2023-06-22T05:56:03;19.33;;;10.88;;
49296;SDS011;35163;48.878;18.040;2023-06-22T05:58:30;18.42;;;10.02;;
49296;SDS011;35163;48.878;18.040;2023-06-22T06:00:57;21.48;;;11.50;;
49296;SDS011;35163;48.878;18.040;2023-06-22T06:03:23;22.08;;;10.80;;
49296;SDS011;35163;48.878;18.040;2023-06-22T06:05:50;16.23;;;10.38;;
49296;SDS011;35163;48.878;18.040;2023-06-22T06:08:17;19.75;;;10.45;;
49296;SDS011;35163;48.878;18.040;2023-06-22T06:10:44;23.88;;;10.55;;
49296;SDS011;35163;48.878;18.040;2023-06-22T06:13:10;24.85;;;10.52;;
49296;SDS011;35163;48.878;18.040;2023-06-22T06:15:37;20.65;;;10.05;;
49296;SDS011;35163;48.878;18.040;2023-06-22T06:18:04;22.17;;;9.60;;
49296;SDS011;35163;48.878;18.040;2023-06-22T06:20:32;21.90;;;10.98;;
49296;SDS011;35163;48.878;18.040;2023-06-22T06:22:59;25.20;;;11.63;;
49296;SDS011;35163;48.878;18.040;2023-06-22T06:25:26;22.38;;;11.75;;
49296;SDS011;35163;48.878;18.040;2023-06-22T06:27:53;22.75;;;12.65;;
49296;SDS011;35163;48.878;18.040;2023-06-22T06:30:21;18.92;;;11.75;;
49296;SDS011;35163;48.878;18.040;2023-06-22T06:32:49;18.60;;;11.35;;
49296;SDS011;35163;48.878;18.040;2023-06-22T06:35:16;21.13;;;12.30;;
49296;SDS011;35163;48.878;18.040;2023-06-22T06:37:45;22.33;;;12.93;;
49296;SDS011;35163;48.878;18.040;2023-06-22T06:40:14;18.95;;;12.60;;
49296;SDS011;35163;48.878;18.040;2023-06-22T06:42:46;19.67;;;12.18;;
49296;SDS011;35163;48.878;18.040;2023-06-22T06:45:18;16.85;;;9.95;;
49296;SDS011;35163;48.878;18.040;2023-06-22T06:47:46;20.10;;;10.57;;
49296;SDS011;35163;48.878;18.040;2023-06-22T06:50:13;21.15;;;11.25;;
49296;SDS011;35163;48.878;18.040;2023-06-22T06:52:39;19.15;;;11.68;;
49296;SDS011;35163;48.878;18.040;2023-06-22T06:55:06;20.05;;;11.45;;
49296;SDS011;35163;48.878;18.040;2023-06-22T06:57:37;23.65;;;10.43;;
49296;SDS011;35163;48.878;18.040;2023-06-22T07:02:32;15.93;;;8.88;;
49296;SDS011;35163;48.878;18.040;2023-06-22T07:05:01;15.02;;;8.48;;
49296;SDS011;35163;48.878;18.040;2023-06-22T07:07:30;19.85;;;8.98;;
49296;SDS011;35163;48.878;18.040;2023-06-22T07:09:57;20.35;;;9.65;;
49296;SDS011;35163;48.878;18.040;2023-06-22T07:12:25;13.05;;;6.68;;
49296;SDS011;35163;48.878;18.040;2023-06-22T07:14:53;15.10;;;9.40;;
49296;SDS011;35163;48.878;18.040;2023-06-22T07:17:20;16.55;;;8.15;;
49296;SDS011;35163;48.878;18.040;2023-06-22T07:19:46;17.10;;;8.30;;
49296;SDS011;35163;48.878;18.040;2023-06-22T07:22:13;13.80;;;7.65;;
49296;SDS011;35163;48.878;18.040;2023-06-22T07:24:39;15.98;;;8.90;;
49296;SDS011;35163;48.878;18.040;2023-06-22T07:27:09;14.05;;;7.82;;
49296;SDS011;35163;48.878;18.040;2023-06-22T07:29:37;15.43;;;6.63;;
49296;SDS011;35163;48.878;18.040;2023-06-22T07:32:06;12.30;;;6.97;;
49296;SDS011;35163;48.878;18.040;2023-06-22T07:34:33;14.07;;;7.40;;
49296;SDS011;35163;48.878;18.040;2023-06-22T07:37:00;11.55;;;5.97;;
49296;SDS011;35163;48.878;18.040;2023-06-22T07:39:27;13.27;;;6.50;;
49296;SDS011;35163;48.878;18.040;2023-06-22T07:41:54;11.80;;;5.90;;
49296;SDS011;35163;48.878;18.040;2023-06-22T07:44:21;14.85;;;7.40;;
49296;SDS011;35163;48.878;18.040;2023-06-22T07:46:47;13.85;;;7.50;;
49296;SDS011;35163;48.878;18.040;2023-06-22T07:49:14;14.43;;;6.22;;
49296;SDS011;35163;48.878;18.040;2023-06-22T07:51:41;10.85;;;5.50;;
49296;SDS011;35163;48.878;18.040;2023-06-22T07:54:08;10.88;;;5.28;;
49296;SDS011;35163;48.878;18.040;2023-06-22T07:56:36;11.25;;;5.53;;
49296;SDS011;35163;48.878;18.040;2023-06-22T07:59:03;11.15;;;5.38;;
49296;SDS011;35163;48.878;18.040;2023-06-22T08:01:30;16.73;;;7.20;;
49296;SDS011;35163;48.878;18.040;2023-06-22T08:03:56;12.57;;;5.88;;
49296;SDS011;35163;48.878;18.040;2023-06-22T08:06:23;13.52;;;5.65;;
49296;SDS011;35163;48.878;18.040;2023-06-22T08:08:50;9.77;;;4.90;;
49296;SDS011;35163;48.878;18.040;2023-06-22T08:11:19;10.43;;;5.13;;
49296;SDS011;35163;48.878;18.040;2023-06-22T08:13:45;11.98;;;4.47;;
49296;SDS011;35163;48.878;18.040;2023-06-22T08:16:12;10.27;;;4.72;;
49296;SDS011;35163;48.878;18.040;2023-06-22T08:18:39;15.45;;;5.72;;
49296;SDS011;35163;48.878;18.040;2023-06-22T08:21:06;10.55;;;4.78;;
49296;SDS011;35163;48.878;18.040;2023-06-22T08:23:32;12.10;;;4.65;;
49296;SDS011;35163;48.878;18.040;2023-06-22T08:25:59;9.48;;;3.95;;
49296;SDS011;35163;48.878;18.040;2023-06-22T08:28:26;9.38;;;4.28;;
49296;SDS011;35163;48.878;18.040;2023-06-22T08:30:52;13.00;;;5.35;;
49296;SDS011;35163;48.878;18.040;2023-06-22T08:33:19;14.43;;;5.18;;
49296;SDS011;35163;48.878;18.040;2023-06-22T08:38:26;12.32;;;4.75;;
49296;SDS011;35163;48.878;18.040;2023-06-22T08:40:53;9.38;;;4.40;;
49296;SDS011;35163;48.878;18.040;2023-06-22T08:43:19;11.07;;;4.32;;
49296;SDS011;35163;48.878;18.040;2023-06-22T08:45:46;15.52;;;4.20;;
49296;SDS011;35163;48.878;18.040;2023-06-22T08:48:13;15.73;;;5.00;;
49296;SDS011;35163;48.878;18.040;2023-06-22T08:50:40;10.60;;;5.50;;
49296;SDS011;35163;48.878;18.040;2023-06-22T08:53:07;9.23;;;4.57;;
49296;SDS011;35163;48.878;18.040;2023-06-22T08:55:33;8.82;;;3.88;;
49296;SDS011;35163;48.878;18.040;2023-06-22T08:58:00;8.88;;;4.00;;
49296;SDS011;35163;48.878;18.040;2023-06-22T09:00:27;11.68;;;3.97;;
49296;SDS011;35163;48.878;18.040;2023-06-22T09:02:55;8.23;;;3.80;;
49296;SDS011;35163;48.878;18.040;2023-06-22T09:05:25;7.65;;;3.70;;
49296;SDS011;35163;48.878;18.040;2023-06-22T09:07:53;10.68;;;4.15;;
49296;SDS011;35163;48.878;18.040;2023-06-22T09:10:22;10.15;;;3.85;;
49296;SDS011;35163;48.878;18.040;2023-06-22T09:12:49;8.27;;;3.47;;
49296;SDS011;35163;48.878;18.040;2023-06-22T09:15:16;11.38;;;3.55;;
49296;SDS011;35163;48.878;18.040;2023-06-22T09:17:44;10.63;;;3.95;;
49296;SDS011;35163;48.878;18.040;2023-06-22T09:20:13;7.72;;;3.60;;
49296;SDS011;35163;48.878;18.040;2023-06-22T09:22:41;10.00;;;4.05;;
49296;SDS011;35163;48.878;18.040;2023-06-22T09:25:07;10.05;;;4.13;;
49296;SDS011;35163;48.878;18.040;2023-06-22T09:27:34;8.07;;;3.75;;
49296;SDS011;35163;48.878;18.040;2023-06-22T09:30:04;7.95;;;4.03;;
49296;SDS011;35163;48.878;18.040;2023-06-22T09:32:32;9.75;;;3.75;;
49296;SDS011;35163;48.878;18.040;2023-06-22T09:34:58;8.65;;;3.90;;
49296;SDS011;35163;48.878;18.040;2023-06-22T09:37:28;7.82;;;3.80;;
49296;SDS011;35163;48.878;18.040;2023-06-22T09:39:55;10.07;;;4.22;;
49296;SDS011;35163;48.878;18.040;2023-06-22T09:42:22;9.65;;;4.00;;
49296;SDS011;35163;48.878;18.040;2023-06-22T09:44:48;10.07;;;4.13;;
49296;SDS011;35163;48.878;18.040;2023-06-22T09:47:15;14.18;;;4.47;;
49296;SDS011;35163;48.878;18.040;2023-06-22T09:49:42;9.07;;;4.13;;
49296;SDS011;35163;48.878;18.040;2023-06-22T09:52:13;8.35;;;3.88;;
49296;SDS011;35163;48.878;18.040;2023-06-22T09:54:40;11.57;;;4.93;;
49296;SDS011;35163;48.878;18.040;2023-06-22T09:57:07;15.80;;;5.25;;
49296;SDS011;35163;48.878;18.040;2023-06-22T09:59:33;10.43;;;4.50;;
49296;SDS011;35163;48.878;18.040;2023-06-22T10:02:00;9.57;;;4.40;;
49296;SDS011;35163;48.878;18.040;2023-06-22T10:04:27;11.20;;;4.90;;
49296;SDS011;35163;48.878;18.040;2023-06-22T10:06:57;9.70;;;5.25;;
49296;SDS011;35163;48.878;18.040;2023-06-22T10:09:23;9.98;;;5.50;;
49296;SDS011;35163;48.878;18.040;2023-06-22T10:11:50;10.52;;;5.05;;
49296;SDS011;35163;48.878;18.040;2023-06-22T10:14:18;16.10;;;5.88;;
49296;SDS011;35163;48.878;18.040;2023-06-22T10:16:45;13.30;;;4.55;;
49296;SDS011;35163;48.878;18.040;2023-06-22T10:19:11;9.93;;;5.13;;
49296;SDS011;35163;48.878;18.040;2023-06-22T10:21:38;11.23;;;5.70;;
49296;SDS011;35163;48.878;18.040;2023-06-22T10:24:05;11.27;;;4.93;;
49296;SDS011;35163;48.878;18.040;2023-06-22T10:29:04;8.48;;;4.88;;
49296;SDS011;35163;48.878;18.040;2023-06-22T10:31:42;11.88;;;5.10;;
49296;SDS011;35163;48.878;18.040;2023-06-22T10:34:11;8.95;;;4.72;;
49296;SDS011;35163;48.878;18.040;2023-06-22T10:36:40;10.35;;;5.30;;
49296;SDS011;35163;48.878;18.040;2023-06-22T10:39:07;9.10;;;5.07;;
49296;SDS011;35163;48.878;18.040;2023-06-22T10:41:35;15.02;;;5.90;;
49296;SDS011;35163;48.878;18.040;2023-06-22T10:44:02;18.10;;;6.60;;
49296;SDS011;35163;48.878;18.040;2023-06-22T10:46:28;10.82;;;5.57;;
49296;SDS011;35163;48.878;18.040;2023-06-22T10:48:58;11.38;;;6.07;;
49296;SDS011;35163;48.878;18.040;2023-06-22T10:51:25;10.90;;;6.00;;
49296;SDS011;35163;48.878;18.040;2023-06-22T10:53:52;11.82;;;6.22;;
49296;SDS011;35163;48.878;18.040;2023-06-22T10:56:19;16.92;;;6.03;;
49296;SDS011;35163;48.878;18.040;2023-06-22T10:58:46;10.43;;;5.45;;
49296;SDS011;35163;48.878;18.040;2023-06-22T11:01:12;11.63;;;6.00;;
49296;SDS011;35163;48.878;18.040;2023-06-22T11:03:59;12.80;;;6.43;;
49296;SDS011;35163;48.878;18.040;2023-06-22T11:06:26;16.65;;;6.28;;
49296;SDS011;35163;48.878;18.040;2023-06-22T11:08:56;10.82;;;6.10;;
49296;SDS011;35163;48.878;18.040;2023-06-22T11:11:37;11.95;;;7.25;;
49296;SDS011;35163;48.878;18.040;2023-06-22T11:14:03;13.75;;;6.43;;
49296;SDS011;35163;48.878;18.040;2023-06-22T11:16:30;10.57;;;6.68;;
49296;SDS011;35163;48.878;18.040;2023-06-22T11:18:57;11.52;;;7.28;;
49296;SDS011;35163;48.878;18.040;2023-06-22T11:21:23;12.70;;;6.85;;
49296;SDS011;35163;48.878;18.040;2023-06-22T11:23:50;12.00;;;6.85;;
49296;SDS011;35163;48.878;18.040;2023-06-22T11:26:17;11.70;;;6.45;;
49296;SDS011;35163;48.878;18.040;2023-06-22T11:28:44;10.80;;;6.43;;
49296;SDS011;35163;48.878;18.040;2023-06-22T11:31:13;11.23;;;6.00;;
49296;SDS011;35163;48.878;18.040;2023-06-22T11:33:43;11.98;;;6.78;;
49296;SDS011;35163;48.878;18.040;2023-06-22T11:36:12;14.60;;;6.88;;
49296;SDS011;35163;48.878;18.040;2023-06-22T11:38:39;11.52;;;6.57;;
49296;SDS011;35163;48.878;18.040;2023-06-22T11:41:06;12.02;;;6.63;;
49296;SDS011;35163;48.878;18.040;2023-06-22T11:43:33;13.23;;;6.63;;
49296;SDS011;35163;48.878;18.040;2023-06-22T11:46:03;11.50;;;7.18;;
49296;SDS011;35163;48.878;18.040;2023-06-22T11:48:30;12.43;;;7.32;;
49296;SDS011;35163;48.878;18.040;2023-06-22T11:50:57;13.45;;;6.90;;
49296;SDS011;35163;48.878;18.040;2023-06-22T11:53:27;14.18;;;6.13;;
49296;SDS011;35163;48.878;18.040;2023-06-22T11:55:56;12.25;;;6.95;;
49296;SDS011;35163;48.878;18.040;2023-06-22T11:58:23;11.32;;;6.47;;
49296;SDS011;35163;48.878;18.040;2023-06-22T12:00:49;10.85;;;6.35;;
49296;SDS011;35163;48.878;18.040;2023-06-22T12:03:18;10.93;;;6.13;;
49296;SDS011;35163;48.878;18.040;2023-06-22T12:05:45;19.85;;;7.35;;
49296;SDS011;35163;48.878;18.040;2023-06-22T12:08:12;13.15;;;7.00;;
49296;SDS011;35163;48.878;18.040;2023-06-22T12:10:40;14.98;;;7.38;;
49296;SDS011;35163;48.878;18.040;2023-06-22T12:13:07;10.77;;;6.75;;
49296;SDS011;35163;48.878;18.040;2023-06-22T12:15:34;9.75;;;6.13;;
49296;SDS011;35163;48.878;18.040;2023-06-22T12:18:03;12.70;;;6.18;;
49296;SDS011;35163;48.878;18.040;2023-06-22T12:20:30;10.52;;;6.32;;
49296;SDS011;35163;48.878;18.040;2023-06-22T12:22:57;13.57;;;7.15;;
49296;SDS011;35163;48.878;18.040;2023-06-22T12:25:25;16.35;;;7.07;;
49296;SDS011;35163;48.878;18.040;2023-06-22T12:27:51;11.82;;;6.45;;
49296;SDS011;35163;48.878;18.040;2023-06-22T12:30:18;11.15;;;5.85;;
49296;SDS011;35163;48.878;18.040;2023-06-22T12:32:45;14.50;;;6.90;;
49296;SDS011;35163;48.878;18.040;2023-06-22T12:35:34;10.45;;;6.53;;
49296;SDS011;35163;48.878;18.040;2023-06-22T12:38:01;9.88;;;5.85;;
49296;SDS011;35163;48.878;18.040;2023-06-22T12:40:29;13.20;;;6.78;;
49296;SDS011;35163;48.878;18.040;2023-06-22T12:42:56;12.63;;;6.50;;
49296;SDS011;35163;48.878;18.040;2023-06-22T12:45:23;11.00;;;5.90;;
49296;SDS011;35163;48.878;18.040;2023-06-22T12:47:51;13.32;;;6.90;;
49296;SDS011;35163;48.878;18.040;2023-06-22T12:50:17;11.45;;;6.03;;
49296;SDS011;35163;48.878;18.040;2023-06-22T12:52:44;15.00;;;5.78;;
49296;SDS011;35163;48.878;18.040;2023-06-22T12:55:11;13.45;;;6.63;;
49296;SDS011;35163;48.878;18.040;2023-06-22T12:57:37;10.85;;;5.47;;
49296;SDS011;35163;48.878;18.040;2023-06-22T13:00:07;10.73;;;5.78;;
49296;SDS011;35163;48.878;18.040;2023-06-22T13:02:36;10.70;;;5.50;;
49296;SDS011;35163;48.878;18.040;2023-06-22T13:05:03;11.45;;;6.05;;
49296;SDS011;35163;48.878;18.040;2023-06-22T13:07:31;9.88;;;5.25;;
49296;SDS011;35163;48.878;18.040;2023-06-22T13:09:58;11.05;;;6.32;;
49296;SDS011;35163;48.878;18.040;2023-06-22T13:12:24;9.35;;;5.60;;
49296;SDS011;35163;48.878;18.040;2023-06-22T13:14:51;14.52;;;6.45;;
49296;SDS011;35163;48.878;18.040;2023-06-22T13:17:18;9.80;;;5.57;;
49296;SDS011;35163;48.878;18.040;2023-06-22T13:19:44;9.00;;;5.22;;
49296;SDS011;35163;48.878;18.040;2023-06-22T13:22:30;11.77;;;5.78;;
49296;SDS011;35163;48.878;18.040;2023-06-22T13:25:06;10.30;;;5.85;;
49296;SDS011;35163;48.878;18.040;2023-06-22T13:27:34;10.00;;;6.20;;
49296;SDS011;35163;48.878;18.040;2023-06-22T13:30:00;11.02;;;5.57;;
49296;SDS011;35163;48.878;18.040;2023-06-22T13:35:00;9.57;;;5.50;;
49296;SDS011;35163;48.878;18.040;2023-06-22T13:37:26;8.68;;;5.38;;
49296;SDS011;35163;48.878;18.040;2023-06-22T13:39:53;9.05;;;5.25;;
49296;SDS011;35163;48.878;18.040;2023-06-22T13:42:22;11.18;;;5.63;;
49296;SDS011;35163;48.878;18.040;2023-06-22T13:44:50;9.82;;;5.45;;
49296;SDS011;35163;48.878;18.040;2023-06-22T13:47:17;9.63;;;5.85;;
49296;SDS011;35163;48.878;18.040;2023-06-22T13:49:43;13.13;;;5.78;;
49296;SDS011;35163;48.878;18.040;2023-06-22T13:52:10;9.45;;;4.82;;
49296;SDS011;35163;48.878;18.040;2023-06-22T13:54:39;8.35;;;5.07;;
49296;SDS011;35163;48.878;18.040;2023-06-22T13:57:05;10.02;;;5.35;;
49296;SDS011;35163;48.878;18.040;2023-06-22T13:59:33;9.68;;;5.18;;
49296;SDS011;35163;48.878;18.040;2023-06-22T14:01:59;9.35;;;5.40;;
49296;SDS011;35163;48.878;18.040;2023-06-22T14:04:26;11.07;;;5.18;;
49296;SDS011;35163;48.878;18.040;2023-06-22T14:06:53;9.65;;;5.05;;
49296;SDS011;35163;48.878;18.040;2023-06-22T14:09:23;9.23;;;4.80;;
49296;SDS011;35163;48.878;18.040;2023-06-22T14:14:15;8.37;;;4.80;;
49296;SDS011;35163;48.878;18.040;2023-06-22T14:16:41;12.15;;;4.85;;
49296;SDS011;35163;48.878;18.040;2023-06-22T14:19:10;8.77;;;4.60;;
49296;SDS011;35163;48.878;18.040;2023-06-22T14:21:37;7.70;;;4.40;;
49296;SDS011;35163;48.878;18.040;2023-06-22T14:24:03;8.93;;;4.70;;
49296;SDS011;35163;48.878;18.040;2023-06-22T14:26:30;9.77;;;5.00;;
49296;SDS011;35163;48.878;18.040;2023-06-22T14:28:57;9.38;;;4.63;;
49296;SDS011;35163;48.878;18.040;2023-06-22T14:31:29;10.00;;;4.68;;
49296;SDS011;35163;48.878;18.040;2023-06-22T14:33:56;8.95;;;4.90;;
49296;SDS011;35163;48.878;18.040;2023-06-22T14:36:23;8.68;;;4.78;;
49296;SDS011;35163;48.878;18.040;2023-06-22T14:38:50;8.57;;;4.43;;
49296;SDS011;35163;48.878;18.040;2023-06-22T14:41:16;9.43;;;4.40;;
49296;SDS011;35163;48.878;18.040;2023-06-22T14:43:47;13.15;;;4.32;;
49296;SDS011;35163;48.878;18.040;2023-06-22T14:46:16;9.77;;;4.85;;
49296;SDS011;35163;48.878;18.040;2023-06-22T14:48:47;10.95;;;4.95;;